sensor_id;sensor_type;location;lat;lon;timestamp;P1;durP1;ratioP1;P2;durP2;ratioP2
59854;SDS011;45732;52.850;6.896;2023-03-01T00:01:01;22.92;;;17.75;;
59854;SDS011;45732;52.850;6.896;2023-03-01T00:03:31;22.05;;;17.20;;
59854;SDS011;45732;52.850;6.896;2023-03-01T00:05:58;21.70;;;16.73;;
59854;SDS011;45732;52.850;6.896;2023-03-01T00:08:24;22.17;;;16.85;;
59854;SDS011;45732;52.850;6.896;2023-03-01T00:10:59;22.80;;;17.50;;
59854;SDS011;45732;52.850;6.896;2023-03-01T00:13:25;22.35;;;15.77;;
59854;SDS011;45732;52.850;6.896;2023-03-01T00:15:51;23.23;;;17.15;;
59854;SDS011;45732;52.850;6.896;2023-03-01T00:18:17;26.30;;;18.63;;
59854;SDS011;45732;52.850;6.896;2023-03-01T00:20:48;23.33;;;17.70;;
59854;SDS011;45732;52.850;6.896;2023-03-01T00:23:16;25.27;;;18.30;;
59854;SDS011;45732;52.850;6.896;2023-03-01T00:25:42;27.83;;;19.60;;
59854;SDS011;45732;52.850;6.896;2023-03-01T00:28:08;28.48;;;20.98;;
59854;SDS011;45732;52.850;6.896;2023-03-01T00:30:34;27.60;;;21.17;;
59854;SDS011;45732;52.850;6.896;2023-03-01T00:33:00;29.00;;;21.02;;
59854;SDS011;45732;52.850;6.896;2023-03-01T00:35:25;25.55;;;18.80;;
59854;SDS011;45732;52.850;6.896;2023-03-01T00:37:51;24.55;;;19.73;;
59854;SDS011;45732;52.850;6.896;2023-03-01T00:40:23;22.98;;;18.02;;
59854;SDS011;45732;52.850;6.896;2023-03-01T00:42:49;26.38;;;19.52;;
59854;SDS011;45732;52.850;6.896;2023-03-01T00:45:15;25.98;;;18.92;;
59854;SDS011;45732;52.850;6.896;2023-03-01T00:47:41;26.13;;;18.60;;
59854;SDS011;45732;52.850;6.896;2023-03-01T00:50:07;22.77;;;18.48;;
59854;SDS011;45732;52.850;6.896;2023-03-01T00:52:34;24.27;;;18.98;;
59854;SDS011;45732;52.850;6.896;2023-03-01T00:54:59;24.48;;;18.65;;
59854;SDS011;45732;52.850;6.896;2023-03-01T00:57:25;26.98;;;18.85;;
59854;SDS011;45732;52.850;6.896;2023-03-01T00:59:51;26.55;;;18.00;;
59854;SDS011;45732;52.850;6.896;2023-03-01T01:02:20;25.17;;;17.92;;
59854;SDS011;45732;52.850;6.896;2023-03-01T01:04:46;23.98;;;18.20;;
59854;SDS011;45732;52.850;6.896;2023-03-01T01:07:12;23.45;;;18.10;;
59854;SDS011;45732;52.850;6.896;2023-03-01T01:09:38;25.48;;;18.65;;
59854;SDS011;45732;52.850;6.896;2023-03-01T01:12:04;23.10;;;17.85;;
59854;SDS011;45732;52.850;6.896;2023-03-01T01:14:30;22.38;;;17.73;;
59854;SDS011;45732;52.850;6.896;2023-03-01T01:16:56;25.52;;;18.90;;
59854;SDS011;45732;52.850;6.896;2023-03-01T01:19:22;22.52;;;17.52;;
59854;SDS011;45732;52.850;6.896;2023-03-01T01:21:48;23.90;;;18.58;;
59854;SDS011;45732;52.850;6.896;2023-03-01T01:24:14;23.98;;;17.45;;
59854;SDS011;45732;52.850;6.896;2023-03-01T01:26:40;22.45;;;18.60;;
59854;SDS011;45732;52.850;6.896;2023-03-01T01:29:06;23.50;;;18.02;;
59854;SDS011;45732;52.850;6.896;2023-03-01T01:31:33;23.25;;;17.92;;
59854;SDS011;45732;52.850;6.896;2023-03-01T01:34:01;25.55;;;18.50;;
59854;SDS011;45732;52.850;6.896;2023-03-01T01:36:28;23.55;;;18.10;;
59854;SDS011;45732;52.850;6.896;2023-03-01T01:38:53;24.52;;;17.50;;
59854;SDS011;45732;52.850;6.896;2023-03-01T01:41:20;23.98;;;18.35;;
59854;SDS011;45732;52.850;6.896;2023-03-01T01:43:48;22.92;;;17.55;;
59854;SDS011;45732;52.850;6.896;2023-03-01T01:46:34;22.92;;;17.83;;
59854;SDS011;45732;52.850;6.896;2023-03-01T01:51:42;23.92;;;17.73;;
59854;SDS011;45732;52.850;6.896;2023-03-01T01:54:19;24.35;;;18.25;;
59854;SDS011;45732;52.850;6.896;2023-03-01T01:56:58;22.70;;;17.98;;
59854;SDS011;45732;52.850;6.896;2023-03-01T01:59:30;22.23;;;17.48;;
59854;SDS011;45732;52.850;6.896;2023-03-01T02:01:57;21.85;;;17.17;;
59854;SDS011;45732;52.850;6.896;2023-03-01T02:04:26;22.65;;;16.90;;
59854;SDS011;45732;52.850;6.896;2023-03-01T02:06:53;22.10;;;17.38;;
59854;SDS011;45732;52.850;6.896;2023-03-01T02:09:31;24.27;;;17.75;;
59854;SDS011;45732;52.850;6.896;2023-03-01T02:11:58;17.30;;;13.38;;
59854;SDS011;45732;52.850;6.896;2023-03-01T02:14:25;17.05;;;13.77;;
59854;SDS011;45732;52.850;6.896;2023-03-01T02:16:51;18.48;;;15.35;;
59854;SDS011;45732;52.850;6.896;2023-03-01T02:19:25;18.92;;;15.30;;
59854;SDS011;45732;52.850;6.896;2023-03-01T02:22:28;20.65;;;16.13;;
59854;SDS011;45732;52.850;6.896;2023-03-01T02:25:10;20.23;;;15.52;;
59854;SDS011;45732;52.850;6.896;2023-03-01T02:30:19;19.25;;;15.38;;
59854;SDS011;45732;52.850;6.896;2023-03-01T02:32:46;18.33;;;14.75;;
59854;SDS011;45732;52.850;6.896;2023-03-01T02:35:14;19.60;;;15.60;;
59854;SDS011;45732;52.850;6.896;2023-03-01T02:37:43;19.27;;;15.55;;
59854;SDS011;45732;52.850;6.896;2023-03-01T02:40:18;18.42;;;15.18;;
59854;SDS011;45732;52.850;6.896;2023-03-01T02:42:50;18.38;;;15.32;;
59854;SDS011;45732;52.850;6.896;2023-03-01T02:45:19;21.60;;;17.27;;
59854;SDS011;45732;52.850;6.896;2023-03-01T02:47:45;24.73;;;18.15;;
59854;SDS011;45732;52.850;6.896;2023-03-01T02:50:14;25.38;;;18.77;;
59854;SDS011;45732;52.850;6.896;2023-03-01T02:52:55;24.73;;;18.75;;
59854;SDS011;45732;52.850;6.896;2023-03-01T02:55:27;25.17;;;18.27;;
59854;SDS011;45732;52.850;6.896;2023-03-01T02:57:53;22.13;;;16.73;;
59854;SDS011;45732;52.850;6.896;2023-03-01T03:00:21;20.00;;;15.30;;
59854;SDS011;45732;52.850;6.896;2023-03-01T03:02:52;23.83;;;18.60;;
59854;SDS011;45732;52.850;6.896;2023-03-01T03:05:22;23.60;;;17.92;;
59854;SDS011;45732;52.850;6.896;2023-03-01T03:07:50;26.75;;;19.58;;
59854;SDS011;45732;52.850;6.896;2023-03-01T03:10:21;25.20;;;18.98;;
59854;SDS011;45732;52.850;6.896;2023-03-01T03:12:50;26.63;;;18.52;;
59854;SDS011;45732;52.850;6.896;2023-03-01T03:15:17;27.92;;;19.85;;
59854;SDS011;45732;52.850;6.896;2023-03-01T03:17:43;26.35;;;20.13;;
59854;SDS011;45732;52.850;6.896;2023-03-01T03:20:10;25.15;;;20.48;;
59854;SDS011;45732;52.850;6.896;2023-03-01T03:22:44;25.80;;;18.65;;
59854;SDS011;45732;52.850;6.896;2023-03-01T03:25:14;24.85;;;18.40;;
59854;SDS011;45732;52.850;6.896;2023-03-01T03:27:41;25.20;;;19.35;;
59854;SDS011;45732;52.850;6.896;2023-03-01T03:30:09;23.75;;;18.70;;
59854;SDS011;45732;52.850;6.896;2023-03-01T03:32:40;25.70;;;19.73;;
59854;SDS011;45732;52.850;6.896;2023-03-01T03:35:15;24.77;;;19.10;;
59854;SDS011;45732;52.850;6.896;2023-03-01T03:37:41;25.08;;;19.52;;
59854;SDS011;45732;52.850;6.896;2023-03-01T03:40:26;22.35;;;17.65;;
59854;SDS011;45732;52.850;6.896;2023-03-01T03:42:54;25.30;;;19.10;;
59854;SDS011;45732;52.850;6.896;2023-03-01T03:45:19;24.88;;;19.33;;
59854;SDS011;45732;52.850;6.896;2023-03-01T03:47:45;23.15;;;18.48;;
59854;SDS011;45732;52.850;6.896;2023-03-01T03:50:11;23.27;;;18.33;;
59854;SDS011;45732;52.850;6.896;2023-03-01T03:52:38;24.77;;;18.27;;
59854;SDS011;45732;52.850;6.896;2023-03-01T03:55:05;23.25;;;18.65;;
59854;SDS011;45732;52.850;6.896;2023-03-01T03:57:35;28.30;;;20.27;;
59854;SDS011;45732;52.850;6.896;2023-03-01T04:00:02;25.77;;;20.02;;
59854;SDS011;45732;52.850;6.896;2023-03-01T04:02:29;27.20;;;20.90;;
59854;SDS011;45732;52.850;6.896;2023-03-01T04:04:55;28.42;;;20.77;;
59854;SDS011;45732;52.850;6.896;2023-03-01T04:07:21;28.83;;;21.38;;
59854;SDS011;45732;52.850;6.896;2023-03-01T04:09:47;26.17;;;20.30;;
59854;SDS011;45732;52.850;6.896;2023-03-01T04:12:12;25.33;;;18.92;;
59854;SDS011;45732;52.850;6.896;2023-03-01T04:14:38;27.23;;;20.08;;
59854;SDS011;45732;52.850;6.896;2023-03-01T04:17:04;25.48;;;19.58;;
59854;SDS011;45732;52.850;6.896;2023-03-01T04:19:33;27.10;;;20.67;;
59854;SDS011;45732;52.850;6.896;2023-03-01T04:22:01;25.75;;;19.45;;
59854;SDS011;45732;52.850;6.896;2023-03-01T04:24:34;25.52;;;19.35;;
59854;SDS011;45732;52.850;6.896;2023-03-01T04:27:00;27.30;;;20.33;;
59854;SDS011;45732;52.850;6.896;2023-03-01T04:29:27;27.40;;;21.67;;
59854;SDS011;45732;52.850;6.896;2023-03-01T04:31:53;27.35;;;21.63;;
59854;SDS011;45732;52.850;6.896;2023-03-01T04:34:18;25.95;;;20.17;;
59854;SDS011;45732;52.850;6.896;2023-03-01T04:36:44;26.95;;;19.73;;
59854;SDS011;45732;52.850;6.896;2023-03-01T04:39:10;27.73;;;20.52;;
59854;SDS011;45732;52.850;6.896;2023-03-01T04:41:39;27.88;;;20.13;;
59854;SDS011;45732;52.850;6.896;2023-03-01T04:44:05;26.23;;;19.45;;
59854;SDS011;45732;52.850;6.896;2023-03-01T04:46:32;25.48;;;19.40;;
59854;SDS011;45732;52.850;6.896;2023-03-01T04:48:57;26.40;;;19.92;;
59854;SDS011;45732;52.850;6.896;2023-03-01T04:51:23;26.52;;;18.88;;
59854;SDS011;45732;52.850;6.896;2023-03-01T04:53:49;23.25;;;17.27;;
59854;SDS011;45732;52.850;6.896;2023-03-01T04:56:15;20.85;;;16.55;;
59854;SDS011;45732;52.850;6.896;2023-03-01T04:58:43;21.80;;;16.60;;
59854;SDS011;45732;52.850;6.896;2023-03-01T05:01:13;22.13;;;17.33;;
59854;SDS011;45732;52.850;6.896;2023-03-01T05:03:44;22.02;;;16.85;;
59854;SDS011;45732;52.850;6.896;2023-03-01T05:06:11;23.42;;;16.75;;
59854;SDS011;45732;52.850;6.896;2023-03-01T05:08:38;22.67;;;17.65;;
59854;SDS011;45732;52.850;6.896;2023-03-01T05:11:05;22.33;;;18.13;;
59854;SDS011;45732;52.850;6.896;2023-03-01T05:13:33;21.58;;;17.17;;
59854;SDS011;45732;52.850;6.896;2023-03-01T05:16:00;25.55;;;18.98;;
59854;SDS011;45732;52.850;6.896;2023-03-01T05:18:28;25.27;;;19.45;;
59854;SDS011;45732;52.850;6.896;2023-03-01T05:20:55;22.60;;;18.08;;
59854;SDS011;45732;52.850;6.896;2023-03-01T05:23:26;23.52;;;18.50;;
59854;SDS011;45732;52.850;6.896;2023-03-01T05:25:52;24.20;;;18.17;;
59854;SDS011;45732;52.850;6.896;2023-03-01T05:28:18;25.67;;;18.60;;
59854;SDS011;45732;52.850;6.896;2023-03-01T05:30:45;23.08;;;17.98;;
59854;SDS011;45732;52.850;6.896;2023-03-01T05:33:11;27.27;;;19.63;;
59854;SDS011;45732;52.850;6.896;2023-03-01T05:35:40;26.10;;;19.55;;
59854;SDS011;45732;52.850;6.896;2023-03-01T05:38:07;24.42;;;17.73;;
59854;SDS011;45732;52.850;6.896;2023-03-01T05:40:38;24.17;;;19.20;;
59854;SDS011;45732;52.850;6.896;2023-03-01T05:43:05;23.33;;;18.23;;
59854;SDS011;45732;52.850;6.896;2023-03-01T05:45:31;23.17;;;17.50;;
59854;SDS011;45732;52.850;6.896;2023-03-01T05:47:59;24.92;;;18.85;;
59854;SDS011;45732;52.850;6.896;2023-03-01T05:50:26;24.73;;;17.90;;
59854;SDS011;45732;52.850;6.896;2023-03-01T05:52:58;24.27;;;18.60;;
59854;SDS011;45732;52.850;6.896;2023-03-01T05:55:26;22.05;;;16.95;;
59854;SDS011;45732;52.850;6.896;2023-03-01T05:57:52;23.48;;;18.23;;
59854;SDS011;45732;52.850;6.896;2023-03-01T06:00:18;24.67;;;18.48;;
59854;SDS011;45732;52.850;6.896;2023-03-01T06:02:47;24.63;;;18.48;;
59854;SDS011;45732;52.850;6.896;2023-03-01T06:05:13;24.42;;;18.20;;
59854;SDS011;45732;52.850;6.896;2023-03-01T06:07:39;22.17;;;16.83;;
59854;SDS011;45732;52.850;6.896;2023-03-01T06:10:05;26.65;;;18.05;;
59854;SDS011;45732;52.850;6.896;2023-03-01T06:12:34;24.77;;;18.95;;
59854;SDS011;45732;52.850;6.896;2023-03-01T06:15:01;25.20;;;19.13;;
59854;SDS011;45732;52.850;6.896;2023-03-01T06:17:29;25.33;;;18.70;;
59854;SDS011;45732;52.850;6.896;2023-03-01T06:19:55;26.17;;;19.52;;
59854;SDS011;45732;52.850;6.896;2023-03-01T06:22:21;25.90;;;20.77;;
59854;SDS011;45732;52.850;6.896;2023-03-01T06:24:47;23.08;;;18.88;;
59854;SDS011;45732;52.850;6.896;2023-03-01T06:27:13;24.38;;;18.08;;
59854;SDS011;45732;52.850;6.896;2023-03-01T06:29:38;18.50;;;13.93;;
59854;SDS011;45732;52.850;6.896;2023-03-01T06:32:04;18.60;;;14.77;;
59854;SDS011;45732;52.850;6.896;2023-03-01T06:34:30;20.23;;;15.35;;
59854;SDS011;45732;52.850;6.896;2023-03-01T06:36:56;23.65;;;16.60;;
59854;SDS011;45732;52.850;6.896;2023-03-01T06:39:21;23.38;;;18.00;;
59854;SDS011;45732;52.850;6.896;2023-03-01T06:41:47;21.42;;;15.52;;
59854;SDS011;45732;52.850;6.896;2023-03-01T06:44:12;19.95;;;15.02;;
59854;SDS011;45732;52.850;6.896;2023-03-01T06:46:39;17.27;;;13.20;;
59854;SDS011;45732;52.850;6.896;2023-03-01T06:49:05;19.15;;;13.65;;
59854;SDS011;45732;52.850;6.896;2023-03-01T06:51:34;18.45;;;14.45;;
59854;SDS011;45732;52.850;6.896;2023-03-01T06:54:01;19.00;;;15.20;;
59854;SDS011;45732;52.850;6.896;2023-03-01T06:56:28;23.38;;;17.90;;
59854;SDS011;45732;52.850;6.896;2023-03-01T06:58:54;22.02;;;17.25;;
59854;SDS011;45732;52.850;6.896;2023-03-01T07:01:20;23.42;;;17.58;;
59854;SDS011;45732;52.850;6.896;2023-03-01T07:03:45;21.52;;;17.58;;
59854;SDS011;45732;52.850;6.896;2023-03-01T07:06:11;21.15;;;17.33;;
59854;SDS011;45732;52.850;6.896;2023-03-01T07:08:37;17.05;;;14.18;;
59854;SDS011;45732;52.850;6.896;2023-03-01T07:11:02;17.98;;;14.73;;
59854;SDS011;45732;52.850;6.896;2023-03-01T07:13:29;19.17;;;15.25;;
59854;SDS011;45732;52.850;6.896;2023-03-01T07:15:55;16.60;;;13.45;;
59854;SDS011;45732;52.850;6.896;2023-03-01T07:18:20;15.65;;;13.00;;
59854;SDS011;45732;52.850;6.896;2023-03-01T07:20:46;14.63;;;12.25;;
59854;SDS011;45732;52.850;6.896;2023-03-01T07:23:12;16.30;;;13.63;;
59854;SDS011;45732;52.850;6.896;2023-03-01T07:25:38;17.58;;;14.63;;
59854;SDS011;45732;52.850;6.896;2023-03-01T07:28:04;17.35;;;14.77;;
59854;SDS011;45732;52.850;6.896;2023-03-01T07:30:29;18.00;;;14.77;;
59854;SDS011;45732;52.850;6.896;2023-03-01T07:32:55;18.25;;;15.07;;
59854;SDS011;45732;52.850;6.896;2023-03-01T07:35:22;18.67;;;14.77;;
59854;SDS011;45732;52.850;6.896;2023-03-01T07:37:49;17.40;;;13.57;;
59854;SDS011;45732;52.850;6.896;2023-03-01T07:40:15;19.17;;;14.93;;
59854;SDS011;45732;52.850;6.896;2023-03-01T07:42:41;19.35;;;14.88;;
59854;SDS011;45732;52.850;6.896;2023-03-01T07:45:07;23.90;;;18.85;;
59854;SDS011;45732;52.850;6.896;2023-03-01T07:47:33;24.55;;;18.20;;
59854;SDS011;45732;52.850;6.896;2023-03-01T07:49:59;21.73;;;17.98;;
59854;SDS011;45732;52.850;6.896;2023-03-01T07:52:26;25.27;;;21.05;;
59854;SDS011;45732;52.850;6.896;2023-03-01T07:54:51;26.08;;;20.60;;
59854;SDS011;45732;52.850;6.896;2023-03-01T07:57:17;26.77;;;20.60;;
59854;SDS011;45732;52.850;6.896;2023-03-01T07:59:43;27.25;;;21.17;;
59854;SDS011;45732;52.850;6.896;2023-03-01T08:02:10;32.53;;;23.70;;
59854;SDS011;45732;52.850;6.896;2023-03-01T08:04:35;29.77;;;23.90;;
59854;SDS011;45732;52.850;6.896;2023-03-01T08:07:04;31.83;;;23.95;;
59854;SDS011;45732;52.850;6.896;2023-03-01T08:09:30;32.45;;;25.55;;
59854;SDS011;45732;52.850;6.896;2023-03-01T08:11:57;33.17;;;24.35;;
59854;SDS011;45732;52.850;6.896;2023-03-01T08:14:25;29.35;;;22.75;;
59854;SDS011;45732;52.850;6.896;2023-03-01T08:16:51;30.35;;;23.38;;
59854;SDS011;45732;52.850;6.896;2023-03-01T08:19:17;30.88;;;23.90;;
59854;SDS011;45732;52.850;6.896;2023-03-01T08:21:43;28.48;;;22.83;;
59854;SDS011;45732;52.850;6.896;2023-03-01T08:24:08;34.20;;;25.20;;
59854;SDS011;45732;52.850;6.896;2023-03-01T08:26:35;33.05;;;26.48;;
59854;SDS011;45732;52.850;6.896;2023-03-01T08:29:01;34.33;;;26.00;;
59854;SDS011;45732;52.850;6.896;2023-03-01T08:31:32;31.50;;;25.70;;
59854;SDS011;45732;52.850;6.896;2023-03-01T08:34:05;31.60;;;24.90;;
59854;SDS011;45732;52.850;6.896;2023-03-01T08:36:34;30.38;;;25.08;;
59854;SDS011;45732;52.850;6.896;2023-03-01T08:39:05;29.60;;;24.98;;
59854;SDS011;45732;52.850;6.896;2023-03-01T08:41:32;31.05;;;25.52;;
59854;SDS011;45732;52.850;6.896;2023-03-01T08:43:58;31.25;;;24.88;;
59854;SDS011;45732;52.850;6.896;2023-03-01T08:46:34;30.65;;;23.50;;
59854;SDS011;45732;52.850;6.896;2023-03-01T08:49:09;35.55;;;25.52;;
59854;SDS011;45732;52.850;6.896;2023-03-01T08:51:37;33.25;;;25.13;;
59854;SDS011;45732;52.850;6.896;2023-03-01T08:54:06;30.80;;;25.00;;
59854;SDS011;45732;52.850;6.896;2023-03-01T08:56:35;30.48;;;24.40;;
59854;SDS011;45732;52.850;6.896;2023-03-01T08:59:00;30.17;;;23.45;;
59854;SDS011;45732;52.850;6.896;2023-03-01T09:01:26;30.58;;;23.42;;
59854;SDS011;45732;52.850;6.896;2023-03-01T09:03:52;27.77;;;23.00;;
59854;SDS011;45732;52.850;6.896;2023-03-01T09:06:18;31.40;;;24.52;;
59854;SDS011;45732;52.850;6.896;2023-03-01T09:08:45;31.17;;;22.90;;
59854;SDS011;45732;52.850;6.896;2023-03-01T09:11:13;30.02;;;23.75;;
59854;SDS011;45732;52.850;6.896;2023-03-01T09:13:41;28.90;;;23.88;;
59854;SDS011;45732;52.850;6.896;2023-03-01T09:16:08;27.80;;;23.27;;
59854;SDS011;45732;52.850;6.896;2023-03-01T09:18:34;25.85;;;21.02;;
59854;SDS011;45732;52.850;6.896;2023-03-01T09:21:08;23.98;;;20.48;;
59854;SDS011;45732;52.850;6.896;2023-03-01T09:23:36;26.42;;;21.17;;
59854;SDS011;45732;52.850;6.896;2023-03-01T09:26:05;27.88;;;19.83;;
59854;SDS011;45732;52.850;6.896;2023-03-01T09:28:31;24.50;;;19.02;;
59854;SDS011;45732;52.850;6.896;2023-03-01T09:30:58;22.95;;;18.38;;
59854;SDS011;45732;52.850;6.896;2023-03-01T09:33:24;21.95;;;17.80;;
59854;SDS011;45732;52.850;6.896;2023-03-01T09:35:55;21.88;;;16.63;;
59854;SDS011;45732;52.850;6.896;2023-03-01T09:38:24;20.85;;;17.00;;
59854;SDS011;45732;52.850;6.896;2023-03-01T09:40:50;20.73;;;15.85;;
59854;SDS011;45732;52.850;6.896;2023-03-01T09:43:27;21.20;;;15.18;;
59854;SDS011;45732;52.850;6.896;2023-03-01T09:46:05;21.05;;;15.35;;
59854;SDS011;45732;52.850;6.896;2023-03-01T09:48:42;19.77;;;15.75;;
59854;SDS011;45732;52.850;6.896;2023-03-01T09:51:15;21.92;;;17.17;;
59854;SDS011;45732;52.850;6.896;2023-03-01T09:53:44;20.67;;;15.85;;
59854;SDS011;45732;52.850;6.896;2023-03-01T09:58:51;18.77;;;13.98;;
59854;SDS011;45732;52.850;6.896;2023-03-01T10:10:06;16.17;;;11.88;;
59854;SDS011;45732;52.850;6.896;2023-03-01T10:12:34;14.52;;;10.95;;
59854;SDS011;45732;52.850;6.896;2023-03-01T10:15:06;14.52;;;10.05;;
59854;SDS011;45732;52.850;6.896;2023-03-01T10:17:55;10.90;;;7.57;;
59854;SDS011;45732;52.850;6.896;2023-03-01T10:23:15;12.70;;;9.00;;
59854;SDS011;45732;52.850;6.896;2023-03-01T10:25:51;12.13;;;8.13;;
59854;SDS011;45732;52.850;6.896;2023-03-01T10:31:24;11.73;;;8.52;;
59854;SDS011;45732;52.850;6.896;2023-03-01T10:34:02;12.73;;;8.88;;
59854;SDS011;45732;52.850;6.896;2023-03-01T10:36:32;14.38;;;10.13;;
59854;SDS011;45732;52.850;6.896;2023-03-01T10:38:59;13.32;;;8.65;;
59854;SDS011;45732;52.850;6.896;2023-03-01T10:41:35;10.77;;;7.65;;
59854;SDS011;45732;52.850;6.896;2023-03-01T10:44:34;12.15;;;8.40;;
59854;SDS011;45732;52.850;6.896;2023-03-01T10:47:02;13.10;;;8.63;;
59854;SDS011;45732;52.850;6.896;2023-03-01T10:49:29;11.95;;;7.55;;
59854;SDS011;45732;52.850;6.896;2023-03-01T10:51:55;12.07;;;7.90;;
59854;SDS011;45732;52.850;6.896;2023-03-01T10:57:00;12.30;;;7.55;;
59854;SDS011;45732;52.850;6.896;2023-03-01T10:59:31;11.90;;;7.55;;
59854;SDS011;45732;52.850;6.896;2023-03-01T11:02:20;10.82;;;6.78;;
59854;SDS011;45732;52.850;6.896;2023-03-01T11:10:28;7.68;;;4.00;;
59854;SDS011;45732;52.850;6.896;2023-03-01T11:13:14;7.90;;;4.38;;
59854;SDS011;45732;52.850;6.896;2023-03-01T11:15:42;8.45;;;4.53;;
59854;SDS011;45732;52.850;6.896;2023-03-01T11:18:21;9.00;;;4.78;;
59854;SDS011;45732;52.850;6.896;2023-03-01T11:20:48;9.63;;;4.75;;
59854;SDS011;45732;52.850;6.896;2023-03-01T11:23:16;8.90;;;5.20;;
59854;SDS011;45732;52.850;6.896;2023-03-01T11:25:54;9.88;;;5.50;;
59854;SDS011;45732;52.850;6.896;2023-03-01T11:28:21;9.10;;;5.72;;
59854;SDS011;45732;52.850;6.896;2023-03-01T11:31:00;9.82;;;5.78;;
59854;SDS011;45732;52.850;6.896;2023-03-01T11:36:52;9.27;;;5.50;;
59854;SDS011;45732;52.850;6.896;2023-03-01T11:39:03;9.75;;;5.97;;
59854;SDS011;45732;52.850;6.896;2023-03-01T11:41:41;9.00;;;5.85;;
59854;SDS011;45732;52.850;6.896;2023-03-01T11:44:17;9.60;;;5.78;;
59854;SDS011;45732;52.850;6.896;2023-03-01T11:49:31;10.77;;;6.57;;
59854;SDS011;45732;52.850;6.896;2023-03-01T11:54:58;12.75;;;7.20;;
59854;SDS011;45732;52.850;6.896;2023-03-01T12:00:02;12.07;;;8.27;;
59854;SDS011;45732;52.850;6.896;2023-03-01T12:05:21;11.23;;;7.57;;
59854;SDS011;45732;52.850;6.896;2023-03-01T12:11:01;11.15;;;7.20;;
59854;SDS011;45732;52.850;6.896;2023-03-01T12:22:32;11.27;;;7.95;;
59854;SDS011;45732;52.850;6.896;2023-03-01T12:25:20;14.02;;;8.75;;
59854;SDS011;45732;52.850;6.896;2023-03-01T12:30:37;11.02;;;7.68;;
59854;SDS011;45732;52.850;6.896;2023-03-01T12:43:56;11.77;;;8.10;;
59854;SDS011;45732;52.850;6.896;2023-03-01T12:46:50;12.48;;;8.40;;
59854;SDS011;45732;52.850;6.896;2023-03-01T12:49:31;12.20;;;8.52;;
59854;SDS011;45732;52.850;6.896;2023-03-01T12:52:14;12.63;;;8.43;;
59854;SDS011;45732;52.850;6.896;2023-03-01T12:54:45;12.68;;;8.02;;
59854;SDS011;45732;52.850;6.896;2023-03-01T12:57:21;15.40;;;8.02;;
59854;SDS011;45732;52.850;6.896;2023-03-01T13:03:36;12.20;;;8.18;;
59854;SDS011;45732;52.850;6.896;2023-03-01T13:06:01;14.05;;;9.40;;
59854;SDS011;45732;52.850;6.896;2023-03-01T13:08:37;12.82;;;8.98;;
59854;SDS011;45732;52.850;6.896;2023-03-01T13:11:14;14.88;;;9.90;;
59854;SDS011;45732;52.850;6.896;2023-03-01T13:13:45;12.48;;;9.10;;
59854;SDS011;45732;52.850;6.896;2023-03-01T13:16:56;13.88;;;9.30;;
59854;SDS011;45732;52.850;6.896;2023-03-01T13:19:16;16.67;;;9.55;;
59854;SDS011;45732;52.850;6.896;2023-03-01T13:21:44;15.18;;;10.18;;
59854;SDS011;45732;52.850;6.896;2023-03-01T13:34:48;12.73;;;8.95;;
59854;SDS011;45732;52.850;6.896;2023-03-01T13:37:18;14.40;;;9.90;;
59854;SDS011;45732;52.850;6.896;2023-03-01T13:39:50;15.02;;;9.75;;
59854;SDS011;45732;52.850;6.896;2023-03-01T13:45:03;14.77;;;9.90;;
59854;SDS011;45732;52.850;6.896;2023-03-01T13:47:41;14.20;;;10.07;;
59854;SDS011;45732;52.850;6.896;2023-03-01T13:50:15;15.23;;;9.93;;
59854;SDS011;45732;52.850;6.896;2023-03-01T13:52:48;14.45;;;10.60;;
59854;SDS011;45732;52.850;6.896;2023-03-01T13:55:23;15.20;;;10.23;;
59854;SDS011;45732;52.850;6.896;2023-03-01T13:57:55;13.70;;;9.70;;
59854;SDS011;45732;52.850;6.896;2023-03-01T14:00:30;17.08;;;11.13;;
59854;SDS011;45732;52.850;6.896;2023-03-01T14:03:03;16.75;;;11.20;;
59854;SDS011;45732;52.850;6.896;2023-03-01T14:05:34;14.73;;;10.57;;
59854;SDS011;45732;52.850;6.896;2023-03-01T14:08:01;15.35;;;10.48;;
59854;SDS011;45732;52.850;6.896;2023-03-01T14:10:31;13.15;;;9.32;;
59854;SDS011;45732;52.850;6.896;2023-03-01T14:13:24;13.95;;;9.30;;
59854;SDS011;45732;52.850;6.896;2023-03-01T14:19:16;16.50;;;10.07;;
59854;SDS011;45732;52.850;6.896;2023-03-01T14:21:45;16.05;;;10.18;;
59854;SDS011;45732;52.850;6.896;2023-03-01T14:24:18;13.98;;;9.82;;
59854;SDS011;45732;52.850;6.896;2023-03-01T14:26:47;15.10;;;10.02;;
59854;SDS011;45732;52.850;6.896;2023-03-01T14:32:08;14.00;;;9.85;;
59854;SDS011;45732;52.850;6.896;2023-03-01T14:34:42;13.57;;;9.55;;
59854;SDS011;45732;52.850;6.896;2023-03-01T14:37:21;13.25;;;9.38;;
59854;SDS011;45732;52.850;6.896;2023-03-01T14:39:52;13.68;;;9.80;;
59854;SDS011;45732;52.850;6.896;2023-03-01T14:42:18;13.40;;;10.05;;
59854;SDS011;45732;52.850;6.896;2023-03-01T14:44:47;16.23;;;10.65;;
59854;SDS011;45732;52.850;6.896;2023-03-01T14:47:15;14.02;;;9.48;;
59854;SDS011;45732;52.850;6.896;2023-03-01T14:49:54;13.63;;;9.85;;
59854;SDS011;45732;52.850;6.896;2023-03-01T14:52:36;12.88;;;9.45;;
59854;SDS011;45732;52.850;6.896;2023-03-01T14:55:05;14.35;;;9.93;;
59854;SDS011;45732;52.850;6.896;2023-03-01T14:57:42;14.43;;;9.88;;
59854;SDS011;45732;52.850;6.896;2023-03-01T15:00:10;15.43;;;10.07;;
59854;SDS011;45732;52.850;6.896;2023-03-01T15:02:47;14.43;;;9.55;;
59854;SDS011;45732;52.850;6.896;2023-03-01T15:05:15;15.05;;;10.95;;
59854;SDS011;45732;52.850;6.896;2023-03-01T15:07:49;13.98;;;10.02;;
59854;SDS011;45732;52.850;6.896;2023-03-01T15:10:21;14.60;;;10.20;;
59854;SDS011;45732;52.850;6.896;2023-03-01T15:12:49;14.57;;;10.20;;
59854;SDS011;45732;52.850;6.896;2023-03-01T15:18:02;15.07;;;10.35;;
59854;SDS011;45732;52.850;6.896;2023-03-01T15:20:37;16.83;;;10.85;;
59854;SDS011;45732;52.850;6.896;2023-03-01T15:23:04;14.13;;;9.90;;
59854;SDS011;45732;52.850;6.896;2023-03-01T15:25:31;16.20;;;11.07;;
59854;SDS011;45732;52.850;6.896;2023-03-01T15:27:58;14.23;;;9.95;;
59854;SDS011;45732;52.850;6.896;2023-03-01T15:36:00;14.13;;;10.43;;
59854;SDS011;45732;52.850;6.896;2023-03-01T15:41:26;14.30;;;10.30;;
59854;SDS011;45732;52.850;6.896;2023-03-01T15:43:55;14.95;;;11.65;;
59854;SDS011;45732;52.850;6.896;2023-03-01T15:46:24;14.80;;;11.13;;
59854;SDS011;45732;52.850;6.896;2023-03-01T15:49:00;15.85;;;10.93;;
59854;SDS011;45732;52.850;6.896;2023-03-01T15:51:32;16.45;;;11.77;;
59854;SDS011;45732;52.850;6.896;2023-03-01T15:54:00;14.88;;;11.18;;
59854;SDS011;45732;52.850;6.896;2023-03-01T15:56:29;17.50;;;12.45;;
59854;SDS011;45732;52.850;6.896;2023-03-01T15:58:59;17.55;;;11.85;;
59854;SDS011;45732;52.850;6.896;2023-03-01T16:01:25;15.82;;;11.25;;
59854;SDS011;45732;52.850;6.896;2023-03-01T16:03:51;23.65;;;11.90;;
59854;SDS011;45732;52.850;6.896;2023-03-01T16:06:18;16.80;;;12.30;;
59854;SDS011;45732;52.850;6.896;2023-03-01T16:08:44;17.05;;;12.40;;
59854;SDS011;45732;52.850;6.896;2023-03-01T16:11:14;17.00;;;12.10;;
59854;SDS011;45732;52.850;6.896;2023-03-01T16:13:42;16.15;;;12.57;;
59854;SDS011;45732;52.850;6.896;2023-03-01T16:16:11;20.17;;;12.75;;
59854;SDS011;45732;52.850;6.896;2023-03-01T16:18:41;18.15;;;13.82;;
59854;SDS011;45732;52.850;6.896;2023-03-01T16:21:12;16.30;;;13.05;;